Time;durP1;ratioP1;P1;durP2;ratioP2;P2;SDS_P1;SDS_P2;PMS_P1;PMS_P2;Temp;Humidity;BMP_temperature;BMP_pressure;BME280_temperature;BME280_humidity;BME280_pressure;Samples;Min_cycle;Max_cycle;Signal;HPM_P1;HPM_P2
2022/03/11 00:01:17;;;;;;;;;;;21.30;99.90;;;;;;4996244;28;19910;-72
2022/03/11 00:03:43;;;;;;;;;;;21.30;99.90;;;;;;4995987;28;20284;-72
2022/03/11 00:06:10;;;;;;;;;;;21.50;99.90;;;;;;4996214;28;20323;-72
2022/03/11 00:08:36;;;;;;;;;;;21.50;99.90;;;;;;4996170;28;19980;-72
2022/03/11 00:14:06;;;;;;;;;;;21.40;99.90;;;;;;5395453;23;19971;-71
2022/03/11 00:16:34;;;;;;;;;;;21.20;99.90;;;;;;5475043;22;19928;-69
2022/03/11 00:19:00;;;;;;;;;;;21.20;99.90;;;;;;5045945;28;19917;-69
2022/03/11 00:21:27;;;;;;;;;;;21.30;99.90;;;;;;5053744;28;19909;-69
2022/03/11 00:23:54;;;;;;;;;;;21.40;99.90;;;;;;5054641;28;19920;-69
2022/03/11 00:26:20;;;;;;;;;;;21.40;99.90;;;;;;5054749;28;20346;-70
2022/03/11 00:28:47;;;;;;;;;;;21.60;99.90;;;;;;5054970;28;19909;-69
2022/03/11 00:31:14;;;;;;;;;;;21.60;99.90;;;;;;5054630;28;19924;-69
2022/03/11 00:33:40;;;;;;;;;;;21.60;99.90;;;;;;5054752;28;19916;-68
2022/03/11 00:36:07;;;;;;;;;;;21.60;99.90;;;;;;5054685;28;20357;-70
2022/03/11 00:38:34;;;;;;;;;;;21.60;99.90;;;;;;5054742;28;19909;-70
2022/03/11 00:41:00;;;;;;;;;;;21.70;99.90;;;;;;5054666;28;19913;-70
2022/03/11 00:43:27;;;;;;;;;;;21.80;99.90;;;;;;5054807;28;20329;-67
2022/03/11 00:45:54;;;;;;;;;;;21.90;99.90;;;;;;5054450;28;20378;-68
2022/03/11 00:48:21;;;;;;;;;;;22.00;99.90;;;;;;5054477;28;19913;-69
2022/03/11 00:50:48;;;;;;;;;;;22.00;99.90;;;;;;5054569;28;19909;-70
2022/03/11 00:53:15;;;;;;;;;;;21.80;99.90;;;;;;5054490;28;19912;-69
2022/03/11 00:55:41;;;;;;;;;;;21.70;99.90;;;;;;5054234;28;20275;-69
2022/03/11 00:58:08;;;;;;;;;;;21.60;99.90;;;;;;5054256;28;19909;-69
2022/03/11 01:00:35;;;;;;;;;;;21.60;99.90;;;;;;5054464;28;20382;-69
2022/03/11 01:03:02;;;;;;;;;;;21.40;99.90;;;;;;5053943;28;19909;-69
2022/03/11 01:05:28;;;;;;;;;;;21.40;99.90;;;;;;5054380;28;19913;-69
2022/03/11 01:07:56;;;;;;;;;;;21.60;99.90;;;;;;5053182;28;20015;-69
2022/03/11 01:10:23;;;;;;;;;;;21.70;99.90;;;;;;5054034;28;19913;-69
2022/03/11 01:12:50;;;;;;;;;;;21.70;99.90;;;;;;5054523;28;19917;-70
2022/03/11 01:15:17;;;;;;;;;;;21.50;99.90;;;;;;5054120;28;19908;-69
2022/03/11 01:17:43;;;;;;;;;;;21.60;99.90;;;;;;5053730;28;20046;-68
2022/03/11 01:20:11;;;;;;;;;;;21.90;99.90;;;;;;5054113;28;19971;-68
2022/03/11 01:22:38;;;;;;;;;;;22.10;99.90;;;;;;5054187;28;19931;-70
2022/03/11 01:25:05;;;;;;;;;;;22.30;99.90;;;;;;5054022;28;19915;-68
2022/03/11 01:27:31;;;;;;;;;;;22.50;99.90;;;;;;5053643;28;19909;-69
2022/03/11 01:29:58;;;;;;;;;;;22.70;99.90;;;;;;5052294;28;20274;-69
2022/03/11 01:32:25;;;;;;;;;;;22.60;99.90;;;;;;5052815;28;19921;-69
2022/03/11 01:34:51;;;;;;;;;;;22.80;99.90;;;;;;5053498;28;19956;-68
2022/03/11 01:37:18;;;;;;;;;;;22.90;99.90;;;;;;5053621;28;19909;-69
2022/03/11 01:39:45;;;;;;;;;;;23.00;99.90;;;;;;5053889;28;20310;-68
2022/03/11 01:42:12;;;;;;;;;;;23.00;99.90;;;;;;5053284;28;19909;-69
2022/03/11 01:44:38;;;;;;;;;;;23.00;99.90;;;;;;5053007;28;19931;-68
2022/03/11 01:47:07;;;;;;;;;;;23.10;99.90;;;;;;5053236;28;19912;-69
2022/03/11 01:49:34;;;;;;;;;;;23.40;99.90;;;;;;5053337;28;19979;-68
2022/03/11 01:52:01;;;;;;;;;;;23.40;99.90;;;;;;5053256;28;19924;-68
2022/03/11 01:54:27;;;;;;;;;;;23.50;99.90;;;;;;5053188;28;19909;-68
2022/03/11 01:56:54;;;;;;;;;;;23.50;99.90;;;;;;5052993;28;19970;-70
2022/03/11 01:59:21;;;;;;;;;;;23.40;99.90;;;;;;5052974;28;19986;-69
2022/03/11 02:01:47;;;;;;;;;;;23.20;99.90;;;;;;5053131;28;19916;-69
2022/03/11 02:04:14;;;;;;;;;;;22.90;99.90;;;;;;5052927;28;20003;-69
2022/03/11 02:06:41;;;;;;;;;;;22.70;99.90;;;;;;5053032;28;20027;-69
2022/03/11 02:09:07;;;;;;;;;;;22.60;99.90;;;;;;5053603;28;20373;-69
2022/03/11 02:11:35;;;;;;;;;;;22.40;99.90;;;;;;5053035;28;19924;-70
2022/03/11 02:14:02;;;;;;;;;;;22.30;99.90;;;;;;5053005;28;19916;-69
2022/03/11 02:16:30;;;;;;;;;;;22.30;99.90;;;;;;5052627;28;19959;-69
2022/03/11 02:18:57;;;;;;;;;;;22.40;99.90;;;;;;5052574;28;19916;-69
2022/03/11 02:21:26;;;;;;;;;;;22.60;99.90;;;;;;5053013;28;19909;-69
2022/03/11 02:23:53;;;;;;;;;;;22.50;99.90;;;;;;5052638;28;19963;-70
2022/03/11 02:26:21;;;;;;;;;;;22.60;99.90;;;;;;5052853;28;20255;-69
2022/03/11 02:28:49;;;;;;;;;;;22.60;99.90;;;;;;5052742;28;20366;-69
2022/03/11 02:31:16;;;;;;;;;;;22.50;99.90;;;;;;5052624;28;19924;-69
2022/03/11 02:33:42;;;;;;;;;;;22.50;99.90;;;;;;5052736;28;20007;-69
2022/03/11 02:36:09;;;;;;;;;;;22.40;99.90;;;;;;5052331;28;19908;-70
2022/03/11 02:38:37;;;;;;;;;;;22.30;99.90;;;;;;5052499;28;19934;-69
2022/03/11 02:41:03;;;;;;;;;;;22.20;99.90;;;;;;5052751;28;19916;-69
2022/03/11 02:43:30;;;;;;;;;;;22.10;99.90;;;;;;5052498;28;19908;-69
2022/03/11 02:45:57;;;;;;;;;;;22.30;99.90;;;;;;5052618;28;20007;-68
2022/03/11 02:48:23;;;;;;;;;;;22.50;99.90;;;;;;5052139;28;19909;-69
2022/03/11 02:50:50;;;;;;;;;;;22.70;99.90;;;;;;5052451;28;19971;-69
2022/03/11 02:53:17;;;;;;;;;;;22.80;99.90;;;;;;5052339;28;19915;-69
2022/03/11 02:55:43;;;;;;;;;;;22.90;99.90;;;;;;5052355;28;19909;-69
2022/03/11 02:58:10;;;;;;;;;;;23.00;99.90;;;;;;5052274;28;19995;-68
2022/03/11 03:00:37;;;;;;;;;;;23.20;99.90;;;;;;5052158;28;19908;-69
2022/03/11 03:03:04;;;;;;;;;;;23.00;99.90;;;;;;5052583;28;19909;-69
2022/03/11 03:05:31;;;;;;;;;;;22.80;99.90;;;;;;5052978;28;20480;-70
2022/03/11 03:07:57;;;;;;;;;;;22.70;99.90;;;;;;5052417;28;19915;-71
2022/03/11 03:10:24;;;;;;;;;;;22.60;99.90;;;;;;5052069;28;19908;-69
2022/03/11 03:12:51;;;;;;;;;;;22.70;99.90;;;;;;5052191;28;19917;-70
2022/03/11 03:15:17;;;;;;;;;;;22.60;99.90;;;;;;5052341;28;19909;-69
2022/03/11 03:17:44;;;;;;;;;;;22.60;99.90;;;;;;5065672;28;19924;-69
2022/03/11 03:20:11;;;;;;;;;;;22.50;99.90;;;;;;5072150;28;19912;-70
2022/03/11 03:22:38;;;;;;;;;;;22.60;99.90;;;;;;5072219;28;20123;-70
2022/03/11 03:25:05;;;;;;;;;;;22.70;99.90;;;;;;5072151;28;19908;-69
2022/03/11 03:27:31;;;;;;;;;;;22.90;99.90;;;;;;5072267;28;20306;-70
2022/03/11 03:29:58;;;;;;;;;;;22.80;99.90;;;;;;5073117;28;20358;-68
2022/03/11 03:32:25;;;;;;;;;;;22.80;99.90;;;;;;5075692;28;19942;-69
2022/03/11 03:34:51;;;;;;;;;;;22.80;99.90;;;;;;5075929;28;19952;-69
2022/03/11 03:37:18;;;;;;;;;;;22.80;99.90;;;;;;5075799;28;19916;-69
2022/03/11 03:39:45;;;;;;;;;;;22.70;99.90;;;;;;5057914;28;20267;-69
2022/03/11 03:42:11;;;;;;;;;;;22.60;99.90;;;;;;5075958;28;19916;-69
2022/03/11 03:44:38;;;;;;;;;;;22.60;99.90;;;;;;5075892;28;19908;-70
2022/03/11 03:47:05;;;;;;;;;;;22.60;99.90;;;;;;5075813;28;19908;-70
2022/03/11 03:49:31;;;;;;;;;;;22.70;99.90;;;;;;5075487;28;20471;-70
2022/03/11 03:51:58;;;;;;;;;;;22.60;99.90;;;;;;5075616;28;19916;-69
2022/03/11 03:54:25;;;;;;;;;;;22.50;99.90;;;;;;5075190;28;19908;-69
2022/03/11 03:56:51;;;;;;;;;;;22.50;99.90;;;;;;5075541;28;19915;-69
2022/03/11 03:59:18;;;;;;;;;;;22.50;99.90;;;;;;5075419;28;19910;-68
2022/03/11 04:01:45;;;;;;;;;;;22.50;99.90;;;;;;5075324;28;19913;-69
2022/03/11 04:04:12;;;;;;;;;;;22.50;99.90;;;;;;5075133;28;19924;-70
2022/03/11 04:06:40;;;;;;;;;;;22.60;99.90;;;;;;5075677;28;19912;-69
2022/03/11 04:09:07;;;;;;;;;;;22.60;99.90;;;;;;5075528;28;19908;-69
2022/03/11 04:11:34;;;;;;;;;;;22.60;99.90;;;;;;5074455;28;19916;-69
2022/03/11 04:14:01;;;;;;;;;;;22.70;99.90;;;;;;5075276;28;19909;-69
2022/03/11 04:16:28;;;;;;;;;;;22.80;99.90;;;;;;5074741;28;19916;-70
2022/03/11 04:18:55;;;;;;;;;;;22.90;99.90;;;;;;5074984;28;19914;-70
2022/03/11 04:21:21;;;;;;;;;;;22.80;99.90;;;;;;5074937;28;19909;-69
2022/03/11 04:23:49;;;;;;;;;;;22.60;99.90;;;;;;5074873;28;20003;-68
2022/03/11 04:26:17;;;;;;;;;;;22.50;99.90;;;;;;5074959;28;19974;-68
2022/03/11 04:28:44;;;;;;;;;;;22.50;99.90;;;;;;5074911;28;19916;-69
2022/03/11 04:31:11;;;;;;;;;;;22.50;99.90;;;;;;5074589;28;19943;-69
2022/03/11 04:33:39;;;;;;;;;;;22.40;99.90;;;;;;5074637;28;19909;-68
2022/03/11 04:36:06;;;;;;;;;;;22.40;99.90;;;;;;5074884;28;20423;-69
2022/03/11 04:38:33;;;;;;;;;;;22.20;99.90;;;;;;5074680;28;20035;-69
2022/03/11 04:41:00;;;;;;;;;;;22.10;99.90;;;;;;5074269;28;19908;-69
2022/03/11 04:43:27;;;;;;;;;;;22.10;99.90;;;;;;5074554;28;20003;-69
2022/03/11 04:45:54;;;;;;;;;;;22.00;99.90;;;;;;5074543;28;20027;-69
2022/03/11 04:48:20;;;;;;;;;;;22.00;99.90;;;;;;5074438;28;19946;-69
2022/03/11 04:50:47;;;;;;;;;;;21.90;99.90;;;;;;5074535;28;19908;-68
2022/03/11 04:53:14;;;;;;;;;;;21.90;99.90;;;;;;5074531;28;19917;-69
2022/03/11 04:55:40;;;;;;;;;;;22.10;99.90;;;;;;5074329;28;20381;-70
2022/03/11 04:58:07;;;;;;;;;;;22.30;99.90;;;;;;5074194;28;19908;-70
2022/03/11 05:00:34;;;;;;;;;;;22.40;99.90;;;;;;5074240;28;19909;-69
2022/03/11 05:03:01;;;;;;;;;;;22.40;99.90;;;;;;5074073;28;19954;-69
2022/03/11 05:05:27;;;;;;;;;;;22.40;99.90;;;;;;5073903;28;19950;-70
2022/03/11 05:07:54;;;;;;;;;;;22.40;99.90;;;;;;5073859;28;19915;-69
2022/03/11 05:10:21;;;;;;;;;;;22.50;99.90;;;;;;5073896;28;20808;-69
2022/03/11 05:12:48;;;;;;;;;;;22.50;99.90;;;;;;5073701;28;19916;-69
2022/03/11 05:15:15;;;;;;;;;;;22.60;99.90;;;;;;5073721;28;19936;-69
2022/03/11 05:17:41;;;;;;;;;;;22.60;99.90;;;;;;5073788;28;19921;-68
2022/03/11 05:20:08;;;;;;;;;;;22.70;99.90;;;;;;5074157;28;19908;-68
2022/03/11 05:22:35;;;;;;;;;;;22.60;99.90;;;;;;5074060;28;19909;-70
2022/03/11 05:25:02;;;;;;;;;;;22.60;99.90;;;;;;5073850;28;19936;-69
2022/03/11 05:27:28;;;;;;;;;;;22.70;99.90;;;;;;5073380;28;19909;-69
2022/03/11 05:29:55;;;;;;;;;;;22.60;99.90;;;;;;5073712;28;19977;-69
2022/03/11 05:32:21;;;;;;;;;;;22.60;99.90;;;;;;5073379;28;19920;-69
2022/03/11 05:34:48;;;;;;;;;;;22.70;99.90;;;;;;5073435;28;19915;-69
2022/03/11 05:37:15;;;;;;;;;;;22.70;99.90;;;;;;5073187;28;19921;-69
2022/03/11 05:39:42;;;;;;;;;;;22.70;99.90;;;;;;5073472;28;19908;-69
2022/03/11 05:42:09;;;;;;;;;;;22.60;99.90;;;;;;5073247;28;19910;-69
2022/03/11 05:44:35;;;;;;;;;;;22.60;99.90;;;;;;5073201;28;19967;-70
2022/03/11 05:47:02;;;;;;;;;;;22.80;99.90;;;;;;5073270;28;20343;-68
2022/03/11 05:49:29;;;;;;;;;;;22.70;99.90;;;;;;5073392;28;20003;-68
2022/03/11 05:51:55;;;;;;;;;;;22.50;99.90;;;;;;5070898;28;20334;-68
2022/03/11 05:54:22;;;;;;;;;;;22.50;99.90;;;;;;5070268;28;20596;-69
2022/03/11 05:56:54;;;;;;;;;;;22.70;99.90;;;;;;5071001;28;19912;-69
2022/03/11 05:59:24;;;;;;;;;;;22.70;99.90;;;;;;5070856;28;20358;-69
2022/03/11 06:01:50;;;;;;;;;;;22.60;99.90;;;;;;5070933;28;20346;-69
2022/03/11 06:04:17;;;;;;;;;;;22.30;99.90;;;;;;5070368;28;19955;-68
2022/03/11 06:06:44;;;;;;;;;;;22.10;99.90;;;;;;5070764;28;19955;-69
2022/03/11 06:09:11;;;;;;;;;;;22.00;99.90;;;;;;5070779;28;20358;-69
2022/03/11 06:11:39;;;;;;;;;;;22.10;99.90;;;;;;5070442;28;20333;-69
2022/03/11 06:14:06;;;;;;;;;;;22.10;99.90;;;;;;5070511;28;19913;-69
2022/03/11 06:16:33;;;;;;;;;;;22.00;99.90;;;;;;5070654;28;20370;-69
2022/03/11 06:19:00;;;;;;;;;;;22.10;99.90;;;;;;5070211;28;20330;-69
2022/03/11 06:21:27;;;;;;;;;;;22.20;99.90;;;;;;5070556;28;19913;-70
2022/03/11 06:23:53;;;;;;;;;;;22.10;99.90;;;;;;5070608;28;19913;-69
2022/03/11 06:26:20;;;;;;;;;;;22.10;99.90;;;;;;5070263;28;20009;-68
2022/03/11 06:28:47;;;;;;;;;;;22.00;99.90;;;;;;5070470;28;20152;-69
2022/03/11 06:31:13;;;;;;;;;;;21.80;99.90;;;;;;5069918;28;19920;-69
2022/03/11 06:33:40;;;;;;;;;;;21.70;99.90;;;;;;5070336;28;19991;-69
2022/03/11 06:36:07;;;;;;;;;;;21.70;99.90;;;;;;5070424;28;19924;-68
2022/03/11 06:38:33;;;;;;;;;;;21.60;99.90;;;;;;5070416;28;19962;-68
2022/03/11 06:41:00;;;;;;;;;;;21.60;99.90;;;;;;5052889;28;19960;-68
2022/03/11 06:43:27;;;;;;;;;;;21.60;99.90;;;;;;5049872;28;19909;-69
2022/03/11 06:45:54;;;;;;;;;;;21.50;99.90;;;;;;5050347;28;19909;-69
2022/03/11 06:48:21;;;;;;;;;;;21.50;99.90;;;;;;5049982;28;19931;-69
2022/03/11 06:50:48;;;;;;;;;;;21.50;99.90;;;;;;5050232;28;19909;-70
2022/03/11 06:53:15;;;;;;;;;;;21.40;99.90;;;;;;5050287;28;19961;-70
2022/03/11 06:55:42;;;;;;;;;;;21.30;99.90;;;;;;5049749;28;19940;-69
2022/03/11 06:58:09;;;;;;;;;;;21.20;99.90;;;;;;5049883;28;19908;-70
2022/03/11 07:00:36;;;;;;;;;;;21.20;99.90;;;;;;5049814;28;19999;-69
2022/03/11 07:03:02;;;;;;;;;;;21.20;99.90;;;;;;5050185;28;20363;-69
2022/03/11 07:05:29;;;;;;;;;;;21.10;99.90;;;;;;5053313;28;19979;-69
2022/03/11 07:07:55;;;;;;;;;;;21.10;99.90;;;;;;5054014;28;19916;-70
2022/03/11 07:10:22;;;;;;;;;;;21.10;99.90;;;;;;5053358;28;19919;-69
2022/03/11 07:12:49;;;;;;;;;;;21.10;99.90;;;;;;5054026;28;19952;-69
2022/03/11 07:15:15;;;;;;;;;;;21.10;99.90;;;;;;5054018;28;20374;-70
2022/03/11 07:17:42;;;;;;;;;;;21.10;99.90;;;;;;5054050;28;19974;-69
2022/03/11 07:20:09;;;;;;;;;;;21.10;99.90;;;;;;5053636;28;19936;-69
2022/03/11 07:22:36;;;;;;;;;;;21.10;99.90;;;;;;5053657;28;19912;-70
2022/03/11 07:25:03;;;;;;;;;;;21.20;99.90;;;;;;5053226;28;19951;-69
2022/03/11 07:27:30;;;;;;;;;;;21.20;99.90;;;;;;5053837;28;19916;-69
2022/03/11 07:29:57;;;;;;;;;;;21.20;99.90;;;;;;5053715;28;19913;-70
2022/03/11 07:32:24;;;;;;;;;;;21.30;99.90;;;;;;5053421;28;19920;-69
2022/03/11 07:34:51;;;;;;;;;;;21.20;99.90;;;;;;5053587;28;19919;-69
2022/03/11 07:37:17;;;;;;;;;;;21.20;99.90;;;;;;5053201;28;19912;-68
2022/03/11 07:39:44;;;;;;;;;;;21.20;99.90;;;;;;5052876;28;19912;-68
2022/03/11 07:42:12;;;;;;;;;;;21.20;99.90;;;;;;5053508;28;19913;-67
2022/03/11 07:44:41;;;;;;;;;;;21.10;99.90;;;;;;5053440;28;19966;-68
2022/03/11 07:47:07;;;;;;;;;;;21.10;99.90;;;;;;5052901;28;19909;-69
2022/03/11 07:49:34;;;;;;;;;;;20.90;99.90;;;;;;5053060;28;19908;-69
2022/03/11 07:52:02;;;;;;;;;;;20.90;99.90;;;;;;5053348;28;20011;-69
2022/03/11 07:54:29;;;;;;;;;;;20.90;99.90;;;;;;5053263;28;19938;-70
2022/03/11 07:56:55;;;;;;;;;;;20.90;99.90;;;;;;5053111;28;19912;-70
2022/03/11 07:59:22;;;;;;;;;;;20.90;99.90;;;;;;5063933;28;19908;-70
2022/03/11 08:01:49;;;;;;;;;;;20.80;99.90;;;;;;5053438;28;20297;-70
2022/03/11 08:04:17;;;;;;;;;;;20.90;99.90;;;;;;5053364;28;19924;-70
2022/03/11 08:06:45;;;;;;;;;;;20.80;99.90;;;;;;5053089;28;20328;-70
2022/03/11 08:09:12;;;;;;;;;;;20.80;99.90;;;;;;5053083;28;20457;-70
2022/03/11 08:11:38;;;;;;;;;;;20.70;99.90;;;;;;5052714;28;19971;-70
2022/03/11 08:14:05;;;;;;;;;;;20.70;99.90;;;;;;5052887;28;20394;-70
2022/03/11 08:16:32;;;;;;;;;;;20.70;99.90;;;;;;5052406;28;19917;-70
2022/03/11 08:18:59;;;;;;;;;;;20.70;99.90;;;;;;5053171;28;19908;-70
2022/03/11 08:21:25;;;;;;;;;;;20.60;99.90;;;;;;5053105;28;19917;-70
2022/03/11 08:23:52;;;;;;;;;;;20.70;99.90;;;;;;5052680;28;19920;-70
2022/03/11 08:26:19;;;;;;;;;;;20.70;99.90;;;;;;5052705;28;19959;-70
2022/03/11 08:28:46;;;;;;;;;;;20.60;99.90;;;;;;5052556;28;19913;-70
2022/03/11 08:31:12;;;;;;;;;;;20.60;99.90;;;;;;5052673;28;19908;-70
2022/03/11 08:33:39;;;;;;;;;;;20.60;99.90;;;;;;5052801;28;19963;-70
2022/03/11 08:36:07;;;;;;;;;;;20.60;99.90;;;;;;5052365;28;19915;-70
2022/03/11 08:38:33;;;;;;;;;;;20.60;99.90;;;;;;5052577;28;19909;-70
2022/03/11 08:41:02;;;;;;;;;;;20.60;99.90;;;;;;5052917;28;20377;-70
2022/03/11 08:43:29;;;;;;;;;;;20.60;99.90;;;;;;5052555;28;19913;-70
2022/03/11 08:45:56;;;;;;;;;;;20.70;99.90;;;;;;5052718;28;20386;-70
2022/03/11 08:48:22;;;;;;;;;;;20.60;99.90;;;;;;5051117;28;19923;-70
2022/03/11 08:50:49;;;;;;;;;;;20.60;99.90;;;;;;5052261;28;19919;-70
2022/03/11 08:53:17;;;;;;;;;;;20.60;99.90;;;;;;5052302;28;19925;-70
2022/03/11 08:55:44;;;;;;;;;;;20.70;99.90;;;;;;5052289;28;19913;-70
2022/03/11 08:58:11;;;;;;;;;;;20.70;99.90;;;;;;5050860;28;20008;-69
2022/03/11 09:00:37;;;;;;;;;;;20.60;99.90;;;;;;5052062;28;19995;-70
2022/03/11 09:03:04;;;;;;;;;;;20.60;99.90;;;;;;5052028;28;19916;-70
2022/03/11 09:05:31;;;;;;;;;;;20.60;99.90;;;;;;5052772;28;20351;-70
2022/03/11 09:07:59;;;;;;;;;;;20.60;99.90;;;;;;5052297;28;19909;-70
2022/03/11 09:10:25;;;;;;;;;;;20.60;99.90;;;;;;5051841;28;19917;-70
2022/03/11 09:12:52;;;;;;;;;;;20.60;99.90;;;;;;5051939;28;19917;-70
2022/03/11 09:15:19;;;;;;;;;;;20.60;99.90;;;;;;5051535;28;20398;-70
2022/03/11 09:17:46;;;;;;;;;;;20.70;99.90;;;;;;5051544;28;19924;-71
2022/03/11 09:20:14;;;;;;;;;;;20.60;99.90;;;;;;5051596;28;20002;-70
2022/03/11 09:22:41;;;;;;;;;;;20.70;99.90;;;;;;5050535;28;19916;-69
2022/03/11 09:25:08;;;;;;;;;;;20.60;99.90;;;;;;5051926;28;19936;-70
2022/03/11 09:27:35;;;;;;;;;;;20.60;99.90;;;;;;5051118;28;20019;-69
2022/03/11 09:30:03;;;;;;;;;;;20.60;99.90;;;;;;5051327;28;19963;-69
2022/03/11 09:32:29;;;;;;;;;;;20.60;99.90;;;;;;5051724;28;19924;-69
2022/03/11 09:34:58;;;;;;;;;;;20.60;99.90;;;;;;5051942;28;19924;-70
2022/03/11 09:37:24;;;;;;;;;;;20.60;99.90;;;;;;5051718;28;19909;-70
2022/03/11 09:39:51;;;;;;;;;;;20.60;99.90;;;;;;5051376;28;19917;-69
2022/03/11 09:42:18;;;;;;;;;;;20.60;99.90;;;;;;5050840;28;20531;-69
2022/03/11 09:44:49;;;;;;;;;;;20.60;99.90;;;;;;5051390;28;19923;-69
2022/03/11 09:47:16;;;;;;;;;;;20.60;99.90;;;;;;5051569;28;19912;-69
2022/03/11 09:49:43;;;;;;;;;;;20.60;99.90;;;;;;5051399;28;20274;-69
2022/03/11 09:52:10;;;;;;;;;;;20.60;99.90;;;;;;5051014;28;19920;-70
2022/03/11 09:54:36;;;;;;;;;;;20.50;99.90;;;;;;5051197;28;20003;-70
2022/03/11 09:57:03;;;;;;;;;;;20.50;99.90;;;;;;5051092;28;19913;-69
2022/03/11 09:59:30;;;;;;;;;;;20.50;99.90;;;;;;5051236;28;20007;-70
2022/03/11 10:01:57;;;;;;;;;;;20.60;99.90;;;;;;5051269;28;19955;-70
2022/03/11 10:04:25;;;;;;;;;;;20.60;99.90;;;;;;5050769;28;19912;-70
2022/03/11 10:06:52;;;;;;;;;;;20.60;99.90;;;;;;5051202;28;19913;-70
2022/03/11 10:09:18;;;;;;;;;;;20.50;99.90;;;;;;5050644;28;19924;-69
2022/03/11 10:11:52;;;;;;;;;;;20.50;99.90;;;;;;5051044;28;19947;-69
2022/03/11 10:14:27;;;;;;;;;;;20.50;99.90;;;;;;5050595;28;19944;-70
2022/03/11 10:16:54;;;;;;;;;;;20.50;99.90;;;;;;5050657;28;20387;-69
2022/03/11 10:19:21;;;;;;;;;;;20.50;99.90;;;;;;5050869;28;20585;-70
2022/03/11 10:21:50;;;;;;;;;;;20.50;99.90;;;;;;5050296;28;20559;-70
2022/03/11 10:24:18;;;;;;;;;;;20.50;99.90;;;;;;5050814;28;19909;-70
2022/03/11 10:26:49;;;;;;;;;;;20.50;99.90;;;;;;5050620;28;20011;-69
2022/03/11 10:29:17;;;;;;;;;;;20.50;99.90;;;;;;5050886;28;19923;-69
2022/03/11 10:31:45;;;;;;;;;;;20.50;99.90;;;;;;5050731;28;19921;-70
2022/03/11 10:34:11;;;;;;;;;;;20.50;99.90;;;;;;5050165;28;19909;-70
2022/03/11 10:36:45;;;;;;;;;;;20.50;99.90;;;;;;5050448;28;19916;-70
2022/03/11 10:39:16;;;;;;;;;;;20.50;99.90;;;;;;5050366;28;19913;-70
2022/03/11 10:41:43;;;;;;;;;;;20.50;99.90;;;;;;5050420;28;19982;-69
2022/03/11 10:44:11;;;;;;;;;;;20.40;99.90;;;;;;5050014;28;20011;-69
2022/03/11 10:46:37;;;;;;;;;;;20.50;99.90;;;;;;5050599;28;19912;-69
2022/03/11 10:49:04;;;;;;;;;;;20.50;99.90;;;;;;5050154;28;19908;-70
2022/03/11 10:51:39;;;;;;;;;;;20.40;99.90;;;;;;5050277;28;19924;-69
2022/03/11 10:54:09;;;;;;;;;;;20.40;99.90;;;;;;5050215;28;20003;-69
2022/03/11 10:56:40;;;;;;;;;;;20.40;99.90;;;;;;5050228;28;20347;-70
2022/03/11 10:59:28;;;;;;;;;;;20.50;99.90;;;;;;5052177;28;19963;-69
2022/03/11 11:01:57;;;;;;;;;;;20.50;99.90;;;;;;5052562;28;19916;-69
2022/03/11 11:04:25;;;;;;;;;;;20.50;99.90;;;;;;5052495;28;20378;-69
2022/03/11 11:06:51;;;;;;;;;;;20.50;99.90;;;;;;5044470;28;19909;-70
2022/03/11 11:09:22;;;;;;;;;;;20.50;99.90;;;;;;5052049;28;19916;-69
2022/03/11 11:11:49;;;;;;;;;;;20.50;99.90;;;;;;5051976;28;19917;-69
2022/03/11 11:14:16;;;;;;;;;;;20.50;99.90;;;;;;5051726;28;20377;-70
2022/03/11 11:16:44;;;;;;;;;;;20.50;99.90;;;;;;5052096;28;19917;-69
2022/03/11 11:19:12;;;;;;;;;;;20.50;99.90;;;;;;5052172;28;19915;-70
2022/03/11 11:21:43;;;;;;;;;;;20.50;99.90;;;;;;5052032;28;19909;-69
2022/03/11 11:24:14;;;;;;;;;;;20.50;99.90;;;;;;5052071;28;19909;-69
2022/03/11 11:26:41;;;;;;;;;;;20.50;99.90;;;;;;5052163;28;20007;-69
2022/03/11 11:29:08;;;;;;;;;;;20.40;99.90;;;;;;5052043;28;19909;-69
2022/03/11 11:31:35;;;;;;;;;;;20.30;99.90;;;;;;5051973;28;20424;-70
2022/03/11 11:34:01;;;;;;;;;;;20.30;99.90;;;;;;5051967;28;19923;-70
2022/03/11 11:36:38;;;;;;;;;;;20.30;99.90;;;;;;5051981;28;19948;-70
2022/03/11 11:39:11;;;;;;;;;;;20.30;99.90;;;;;;5050908;28;20294;-70
2022/03/11 11:41:38;;;;;;;;;;;20.30;99.90;;;;;;5051791;28;19912;-70
2022/03/11 11:44:06;;;;;;;;;;;20.20;99.90;;;;;;5051723;28;19909;-70
2022/03/11 11:46:34;;;;;;;;;;;20.20;99.90;;;;;;5052014;28;19944;-70
2022/03/11 11:49:02;;;;;;;;;;;20.10;99.90;;;;;;5051972;28;19909;-70
2022/03/11 11:51:32;;;;;;;;;;;20.20;99.90;;;;;;5053514;28;19970;-70
2022/03/11 11:54:08;;;;;;;;;;;20.10;99.90;;;;;;5055499;28;19962;-70
2022/03/11 11:57:00;;;;;;;;;;;20.10;99.90;;;;;;5058330;28;19917;-70
2022/03/11 11:59:29;;;;;;;;;;;20.10;99.90;;;;;;5073157;28;20012;-67
2022/03/11 12:01:57;;;;;;;;;;;20.00;99.90;;;;;;5073017;28;20293;-69
2022/03/11 12:04:36;;;;;;;;;;;20.00;99.90;;;;;;5072514;28;20582;-69
2022/03/11 12:07:03;;;;;;;;;;;20.00;99.90;;;;;;5073643;28;19908;-68
2022/03/11 12:09:42;;;;;;;;;;;20.10;99.90;;;;;;5072618;28;19995;-69
2022/03/11 12:12:21;;;;;;;;;;;20.10;99.90;;;;;;5072781;28;20007;-69
2022/03/11 12:15:00;;;;;;;;;;;20.10;99.90;;;;;;5073122;28;19913;-69
2022/03/11 12:17:45;;;;;;;;;;;20.10;99.90;;;;;;5072954;28;19931;-69
2022/03/11 12:20:24;;;;;;;;;;;20.20;99.90;;;;;;5072110;28;20019;-69
2022/03/11 12:22:52;;;;;;;;;;;20.20;99.90;;;;;;5072771;28;19944;-69
2022/03/11 12:25:23;;;;;;;;;;;20.20;99.90;;;;;;5072999;28;20309;-68
2022/03/11 12:27:59;;;;;;;;;;;20.20;99.90;;;;;;5072668;28;20381;-69
2022/03/11 12:30:26;;;;;;;;;;;20.10;99.90;;;;;;5072423;28;19913;-69
2022/03/11 12:32:53;;;;;;;;;;;20.10;99.90;;;;;;5072736;28;19916;-69
2022/03/11 12:35:21;;;;;;;;;;;20.20;99.90;;;;;;5072109;28;19914;-69
2022/03/11 12:37:48;;;;;;;;;;;20.20;99.90;;;;;;5072292;28;19912;-69
2022/03/11 12:40:15;;;;;;;;;;;20.20;99.90;;;;;;5072430;28;19920;-70
2022/03/11 12:42:42;;;;;;;;;;;20.30;99.90;;;;;;5072427;28;19916;-69
2022/03/11 12:45:11;;;;;;;;;;;20.30;99.90;;;;;;5072305;28;19941;-69
2022/03/11 12:47:38;;;;;;;;;;;20.20;99.90;;;;;;5072637;28;19908;-69
2022/03/11 12:50:06;;;;;;;;;;;20.20;99.90;;;;;;5071455;28;19909;-70
2022/03/11 12:52:36;;;;;;;;;;;20.20;99.90;;;;;;5072263;28;20355;-69
2022/03/11 12:55:19;;;;;;;;;;;20.20;99.90;;;;;;5072190;28;19935;-69
2022/03/11 12:57:48;;;;;;;;;;;20.10;99.90;;;;;;5072022;28;19966;-70
2022/03/11 13:00:19;;;;;;;;;;;20.10;99.90;;;;;;5072108;28;19913;-70
2022/03/11 13:02:47;;;;;;;;;;;20.10;99.90;;;;;;5071617;28;19916;-70
2022/03/11 13:05:24;;;;;;;;;;;20.00;99.90;;;;;;5071855;28;19990;-69
2022/03/11 13:07:52;;;;;;;;;;;20.00;99.90;;;;;;5072030;28;19935;-69
2022/03/11 13:10:24;;;;;;;;;;;19.90;99.90;;;;;;5071798;28;19912;-69
2022/03/11 13:12:51;;;;;;;;;;;19.90;99.90;;;;;;5071738;28;19967;-69
2022/03/11 13:15:22;;;;;;;;;;;19.90;99.90;;;;;;5071572;28;19908;-69
2022/03/11 13:17:53;;;;;;;;;;;19.90;99.90;;;;;;5071959;28;19921;-69
2022/03/11 13:20:38;;;;;;;;;;;19.90;99.90;;;;;;5071099;28;19954;-69
2022/03/11 13:23:24;;;;;;;;;;;19.90;99.90;;;;;;5071875;28;20007;-69
2022/03/11 13:25:53;;;;;;;;;;;19.80;99.90;;;;;;5071550;28;19912;-69
2022/03/11 13:28:20;;;;;;;;;;;19.80;99.90;;;;;;5070895;28;19908;-69
2022/03/11 13:30:47;;;;;;;;;;;19.70;99.90;;;;;;5071533;28;20358;-69
2022/03/11 13:33:16;;;;;;;;;;;19.70;99.90;;;;;;5071073;28;19939;-68
2022/03/11 13:35:44;;;;;;;;;;;19.60;99.90;;;;;;5071600;28;20374;-69
2022/03/11 13:38:11;;;;;;;;;;;19.60;99.90;;;;;;5071386;28;20266;-68
2022/03/11 13:40:37;;;;;;;;;;;19.50;99.90;;;;;;5071482;28;19940;-69
2022/03/11 13:43:05;;;;;;;;;;;19.50;99.90;;;;;;5071185;28;19939;-69
2022/03/11 13:45:36;;;;;;;;;;;19.50;99.90;;;;;;5071462;28;19939;-69
2022/03/11 13:48:09;;;;;;;;;;;19.50;99.90;;;;;;5071225;28;19916;-69
2022/03/11 13:50:36;;;;;;;;;;;19.40;99.90;;;;;;5071242;28;19912;-69
2022/03/11 13:53:04;;;;;;;;;;;19.50;99.90;;;;;;5071110;28;20362;-69
2022/03/11 13:55:32;;;;;;;;;;;19.50;99.90;;;;;;5071029;28;19908;-69
2022/03/11 13:58:15;;;;;;;;;;;19.50;99.90;;;;;;5071254;28;19954;-69
2022/03/11 14:00:42;;;;;;;;;;;19.50;99.90;;;;;;5071206;28;19994;-69
2022/03/11 14:03:13;;;;;;;;;;;19.50;99.90;;;;;;5071266;28;19908;-69
2022/03/11 14:05:44;;;;;;;;;;;19.40;99.90;;;;;;5071197;28;20251;-69
2022/03/11 14:08:12;;;;;;;;;;;19.50;99.90;;;;;;5070433;28;19919;-69
2022/03/11 14:10:44;;;;;;;;;;;19.50;99.90;;;;;;5071003;28;19909;-70
2022/03/11 14:13:12;;;;;;;;;;;19.50;99.90;;;;;;5070455;28;20010;-70
2022/03/11 14:15:39;;;;;;;;;;;19.40;99.90;;;;;;5070652;28;20282;-69
2022/03/11 14:18:10;;;;;;;;;;;19.40;99.90;;;;;;5070256;28;19931;-69
2022/03/11 14:20:37;;;;;;;;;;;19.40;99.90;;;;;;5070432;28;19908;-69
2022/03/11 14:23:03;;;;;;;;;;;19.30;99.90;;;;;;5070777;28;19955;-69